createdAt,value
2017-10-14T00:00:31.367Z,11.57
2017-10-14T00:02:58.104Z,10.90
2017-10-14T00:05:24.810Z,12.00
2017-10-14T00:07:51.519Z,11.27
2017-10-14T00:10:18.245Z,11.33
2017-10-14T00:12:44.943Z,10.50
2017-10-14T00:15:11.634Z,11.30
2017-10-14T00:17:38.497Z,11.63
2017-10-14T00:20:05.197Z,11.83
2017-10-14T00:22:31.895Z,10.77
2017-10-14T00:24:58.683Z,10.90
2017-10-14T00:27:25.386Z,11.43
2017-10-14T00:29:52.085Z,10.90
2017-10-14T00:32:18.811Z,11.00
2017-10-14T00:34:45.535Z,11.80
2017-10-14T00:37:12.247Z,12.03
2017-10-14T00:39:38.987Z,11.33
2017-10-14T00:42:05.690Z,12.60
2017-10-14T00:44:32.402Z,11.70
2017-10-14T00:46:59.130Z,13.07
2017-10-14T00:49:25.841Z,11.57
2017-10-14T00:51:52.573Z,11.27
2017-10-14T00:54:19.310Z,10.77
2017-10-14T00:56:46.143Z,10.70
2017-10-14T00:59:12.868Z,12.40
2017-10-14T01:01:39.596Z,10.60
2017-10-14T01:04:06.330Z,11.37
2017-10-14T01:06:33.031Z,10.47
2017-10-14T01:08:59.811Z,11.77
2017-10-14T01:11:26.525Z,11.50
2017-10-14T01:13:53.226Z,11.10
2017-10-14T01:16:19.950Z,10.70
2017-10-14T01:18:46.668Z,12.87
2017-10-14T01:21:13.406Z,11.57
2017-10-14T01:23:40.162Z,11.20
2017-10-14T01:26:06.895Z,11.50
2017-10-14T01:28:33.655Z,11.07
2017-10-14T01:31:00.432Z,11.97
2017-10-14T01:33:27.159Z,10.37
2017-10-14T01:35:53.893Z,11.17
2017-10-14T01:38:20.666Z,11.27
2017-10-14T01:40:47.410Z,10.70
2017-10-14T01:43:14.130Z,10.53
2017-10-14T01:45:40.904Z,11.07
2017-10-14T01:48:07.652Z,10.07
2017-10-14T01:50:34.391Z,10.60
2017-10-14T01:53:01.150Z,10.23
2017-10-14T01:55:27.877Z,11.30
2017-10-14T01:57:54.625Z,11.53
2017-10-14T02:00:21.341Z,10.90
2017-10-14T02:02:48.043Z,10.27
2017-10-14T02:05:14.772Z,10.77
2017-10-14T02:07:41.491Z,11.33
2017-10-14T02:10:08.194Z,10.70
2017-10-14T02:12:34.892Z,10.80
2017-10-14T02:15:01.687Z,10.67
2017-10-14T02:17:28.392Z,10.50
2017-10-14T02:19:55.121Z,9.90
2017-10-14T02:22:21.835Z,11.10
2017-10-14T02:24:48.533Z,11.47
2017-10-14T02:27:15.237Z,11.17
2017-10-14T02:29:41.984Z,10.87
2017-10-14T02:32:08.695Z,11.20
2017-10-14T02:34:35.398Z,10.60
2017-10-14T02:37:02.122Z,10.67
2017-10-14T02:39:28.845Z,10.50
2017-10-14T02:41:55.548Z,9.73
2017-10-14T02:44:22.295Z,9.40
2017-10-14T02:46:49.019Z,10.40
2017-10-14T02:49:15.733Z,10.33
2017-10-14T02:51:42.478Z,10.57
2017-10-14T02:54:09.200Z,10.50
2017-10-14T02:56:35.904Z,11.50
2017-10-14T02:59:02.639Z,11.20
2017-10-14T03:01:29.347Z,10.80
2017-10-14T03:03:56.070Z,12.47
2017-10-14T03:06:22.798Z,10.10
2017-10-14T03:08:49.511Z,11.10
2017-10-14T03:11:16.206Z,11.50
2017-10-14T03:13:42.937Z,10.83
2017-10-14T03:16:09.643Z,10.77
2017-10-14T03:18:36.349Z,10.50
2017-10-14T03:21:03.071Z,11.03
2017-10-14T03:23:29.781Z,10.60
2017-10-14T03:25:56.501Z,11.20
2017-10-14T03:28:23.243Z,11.40
2017-10-14T03:30:49.957Z,10.90
2017-10-14T03:33:16.671Z,10.33
2017-10-14T03:35:43.391Z,11.40
2017-10-14T03:38:10.087Z,11.40
2017-10-14T03:40:36.783Z,11.60
2017-10-14T03:43:03.511Z,11.33
2017-10-14T03:45:30.227Z,10.33
2017-10-14T03:47:56.927Z,10.17
2017-10-14T03:50:23.647Z,9.13
2017-10-14T03:52:50.349Z,11.00
2017-10-14T03:55:17.058Z,10.17
2017-10-14T03:57:43.793Z,9.30
2017-10-14T04:00:10.480Z,9.30
2017-10-14T04:02:37.169Z,8.63
2017-10-14T04:05:03.899Z,9.17
2017-10-14T04:07:30.594Z,10.03
2017-10-14T04:09:57.295Z,9.53
2017-10-14T04:12:24.065Z,10.00
2017-10-14T04:14:50.791Z,10.27
2017-10-14T04:17:17.498Z,10.40
2017-10-14T04:19:44.218Z,9.87
2017-10-14T04:22:10.910Z,9.90
2017-10-14T04:24:37.599Z,9.97
2017-10-14T04:27:04.326Z,10.00
2017-10-14T04:29:31.019Z,9.97
2017-10-14T04:31:57.709Z,9.77
2017-10-14T04:34:24.425Z,10.80
2017-10-14T04:36:51.121Z,10.20
2017-10-14T04:39:17.818Z,10.97
2017-10-14T04:41:44.599Z,9.40
2017-10-14T04:44:11.304Z,9.70
2017-10-14T04:46:38.026Z,9.30
2017-10-14T04:49:04.757Z,9.20
2017-10-14T04:51:31.450Z,9.07
2017-10-14T04:53:58.141Z,9.50
2017-10-14T04:56:24.856Z,10.83
2017-10-14T04:58:51.550Z,9.97
2017-10-14T05:01:18.275Z,10.27
2017-10-14T05:03:44.986Z,9.90
2017-10-14T05:06:11.710Z,9.47
2017-10-14T05:08:38.443Z,9.70
2017-10-14T05:11:05.184Z,9.80
2017-10-14T05:13:31.941Z,10.50
2017-10-14T05:15:58.685Z,10.60
2017-10-14T05:18:25.415Z,10.17
2017-10-14T05:20:52.121Z,10.17
2017-10-14T05:23:18.814Z,10.60
2017-10-14T05:25:45.530Z,9.40
2017-10-14T05:28:12.233Z,9.00
2017-10-14T05:30:38.921Z,8.33
2017-10-14T05:33:05.657Z,8.77
2017-10-14T05:35:32.351Z,8.70
2017-10-14T05:37:59.040Z,8.73
2017-10-14T05:40:25.776Z,8.70
2017-10-14T05:42:52.486Z,9.37
2017-10-14T05:45:19.189Z,9.00
2017-10-14T05:47:46.170Z,9.03
2017-10-14T05:50:12.979Z,10.00
2017-10-14T05:52:39.705Z,10.07
2017-10-14T05:55:06.450Z,9.00
2017-10-14T05:57:33.158Z,9.23
2017-10-14T05:59:59.857Z,9.73
2017-10-14T06:02:26.572Z,9.50
2017-10-14T06:04:54.398Z,9.80
2017-10-14T06:07:21.119Z,8.30
2017-10-14T06:09:47.844Z,9.27
2017-10-14T06:12:14.534Z,8.13
2017-10-14T06:14:41.228Z,8.40
2017-10-14T06:17:07.946Z,8.30
2017-10-14T06:19:34.651Z,9.77
2017-10-14T06:22:01.384Z,9.47
2017-10-14T06:24:28.118Z,8.53
2017-10-14T06:26:54.902Z,8.77
2017-10-14T06:29:21.649Z,9.77
2017-10-14T06:31:48.410Z,10.27
2017-10-14T06:34:15.154Z,10.70
2017-10-14T06:36:41.929Z,12.00
2017-10-14T06:39:08.679Z,11.40
2017-10-14T06:41:35.412Z,10.60
2017-10-14T06:44:02.123Z,11.20
2017-10-14T06:46:29.797Z,12.17
2017-10-14T06:48:56.620Z,12.63
2017-10-14T06:51:23.428Z,11.73
2017-10-14T06:53:50.184Z,12.80
2017-10-14T06:56:16.980Z,13.33
2017-10-14T06:58:43.705Z,11.87
2017-10-14T07:01:10.478Z,12.50
2017-10-14T07:03:37.256Z,11.57
2017-10-14T07:06:03.957Z,12.83
2017-10-14T07:08:30.773Z,13.40
2017-10-14T07:10:57.564Z,13.43
2017-10-14T07:13:24.289Z,12.80
2017-10-14T07:15:51.118Z,12.57
2017-10-14T07:18:17.922Z,12.70
2017-10-14T07:20:44.630Z,13.00
2017-10-14T07:23:11.432Z,11.53
2017-10-14T07:25:38.154Z,12.87
2017-10-14T07:28:04.924Z,14.20
2017-10-14T07:30:31.673Z,14.00
2017-10-14T07:32:58.465Z,13.83
2017-10-14T07:35:25.172Z,13.30
2017-10-14T07:37:51.908Z,13.07
2017-10-14T07:40:18.658Z,13.60
2017-10-14T07:42:45.387Z,13.60
2017-10-14T07:45:12.233Z,13.33
2017-10-14T07:47:38.952Z,13.57
2017-10-14T07:50:05.729Z,13.53
2017-10-14T07:52:32.463Z,14.43
2017-10-14T07:54:59.177Z,13.90
2017-10-14T07:57:25.909Z,14.50
2017-10-14T07:59:52.716Z,13.93
2017-10-14T08:02:19.422Z,12.80
2017-10-14T08:04:46.146Z,14.07
2017-10-14T08:07:12.955Z,13.93
2017-10-14T08:09:39.673Z,12.63
2017-10-14T08:12:06.439Z,13.30
2017-10-14T08:14:33.271Z,14.67
2017-10-14T08:16:59.974Z,13.20
2017-10-14T08:19:26.875Z,15.30
2017-10-14T08:21:53.628Z,13.87
2017-10-14T08:24:20.375Z,13.87
2017-10-14T08:26:47.200Z,13.70
2017-10-14T08:29:13.951Z,14.63
2017-10-14T08:31:40.665Z,13.77
2017-10-14T08:34:07.365Z,13.03
2017-10-14T08:36:34.112Z,13.17
2017-10-14T08:39:00.839Z,12.70
2017-10-14T08:41:27.564Z,13.00
2017-10-14T08:43:54.315Z,13.37
2017-10-14T08:46:21.027Z,12.40
2017-10-14T08:48:47.814Z,13.20
2017-10-14T08:51:14.554Z,13.67
2017-10-14T08:53:41.291Z,12.80
2017-10-14T08:56:07.997Z,12.40
2017-10-14T08:58:34.771Z,14.53
2017-10-14T09:01:01.591Z,14.53
2017-10-14T09:03:28.333Z,15.07
2017-10-14T09:05:55.097Z,13.77
2017-10-14T09:08:21.870Z,12.67
2017-10-14T09:10:48.629Z,13.60
2017-10-14T09:13:15.450Z,14.10
2017-10-14T09:15:42.168Z,12.23
2017-10-14T09:18:08.863Z,13.70
2017-10-14T09:20:35.675Z,13.87
2017-10-14T09:23:02.401Z,12.50
2017-10-14T09:25:29.196Z,13.23
2017-10-14T09:27:55.969Z,14.20
2017-10-14T09:30:22.764Z,13.07
2017-10-14T09:32:49.475Z,13.23
2017-10-14T09:35:16.245Z,13.27
2017-10-14T09:37:42.943Z,13.33
2017-10-14T09:40:09.677Z,13.20
2017-10-14T09:42:36.421Z,13.20
2017-10-14T09:45:03.134Z,13.87
2017-10-14T09:47:29.877Z,14.03
2017-10-14T09:49:56.597Z,13.27
2017-10-14T09:52:23.315Z,14.53
2017-10-14T09:54:50.208Z,12.97
2017-10-14T09:57:16.952Z,14.37
2017-10-14T09:59:43.660Z,13.47
2017-10-14T10:02:10.416Z,15.07
2017-10-14T10:04:37.198Z,16.33
2017-10-14T10:07:03.901Z,16.30
2017-10-14T10:09:30.621Z,15.70
2017-10-14T10:11:57.367Z,16.23
2017-10-14T10:14:24.083Z,15.53
2017-10-14T10:16:50.779Z,14.97
2017-10-14T10:19:17.558Z,17.57
2017-10-14T10:21:44.258Z,16.93
2017-10-14T10:24:10.972Z,17.40
2017-10-14T10:26:37.716Z,16.53
2017-10-14T10:29:04.410Z,15.83
2017-10-14T10:31:31.109Z,16.33
2017-10-14T10:33:57.828Z,17.00
2017-10-14T10:36:24.591Z,16.30
2017-10-14T10:38:51.290Z,17.20
2017-10-14T10:41:18.029Z,16.37
2017-10-14T10:43:44.744Z,16.27
2017-10-14T10:46:11.450Z,15.40
2017-10-14T10:48:38.258Z,16.50
2017-10-14T10:51:05.038Z,17.00
2017-10-14T10:53:31.743Z,16.73
2017-10-14T10:55:58.478Z,16.00
2017-10-14T10:58:25.192Z,17.60
2017-10-14T11:00:51.937Z,18.37
2017-10-14T11:03:18.686Z,16.87
2017-10-14T11:05:45.410Z,14.97
2017-10-14T11:08:12.222Z,14.87
2017-10-14T11:10:38.962Z,15.40
2017-10-14T11:13:05.710Z,16.67
2017-10-14T11:15:32.444Z,16.57
2017-10-14T11:17:59.221Z,18.50
2017-10-14T11:20:26.014Z,17.37
2017-10-14T11:22:52.771Z,20.87
2017-10-14T11:25:19.531Z,20.23
2017-10-14T11:27:46.251Z,17.90
2017-10-14T11:30:12.968Z,20.20
2017-10-14T11:32:39.745Z,18.43
2017-10-14T11:35:06.451Z,17.17
2017-10-14T11:37:33.193Z,16.17
2017-10-14T11:39:59.934Z,18.43
2017-10-14T11:42:27.527Z,17.77
2017-10-14T11:44:54.271Z,16.60
2017-10-14T11:47:21.007Z,20.20
2017-10-14T11:49:47.744Z,18.73
2017-10-14T11:52:14.452Z,17.50
2017-10-14T11:54:41.244Z,19.10
2017-10-14T11:57:07.967Z,18.23
2017-10-14T11:59:34.669Z,18.47
2017-10-14T12:02:01.442Z,17.97
2017-10-14T12:04:28.147Z,15.77
2017-10-14T12:06:54.842Z,16.13
2017-10-14T12:09:21.575Z,15.90
2017-10-14T12:11:48.276Z,15.33
2017-10-14T12:14:15.012Z,17.43
2017-10-14T12:16:41.747Z,17.57
2017-10-14T12:19:08.463Z,15.70
2017-10-14T12:21:35.187Z,16.23
2017-10-14T12:24:01.918Z,16.13
2017-10-14T12:26:28.620Z,16.17
2017-10-14T12:28:55.329Z,15.40
2017-10-14T12:31:22.070Z,13.70
2017-10-14T12:33:48.842Z,13.73
2017-10-14T12:36:15.656Z,15.20
2017-10-14T12:38:42.570Z,12.30
2017-10-14T12:41:09.327Z,13.50
2017-10-14T12:43:36.204Z,14.40
2017-10-14T12:46:02.983Z,14.03
2017-10-14T12:48:29.723Z,14.83
2017-10-14T12:50:56.506Z,14.97
2017-10-14T12:53:23.329Z,15.20
2017-10-14T12:55:50.227Z,16.60
2017-10-14T12:58:16.963Z,12.50
2017-10-14T13:00:43.756Z,14.70
2017-10-14T13:03:10.470Z,11.93
2017-10-14T13:05:37.202Z,13.70
2017-10-14T13:08:03.955Z,12.87
2017-10-14T13:10:30.691Z,12.80
2017-10-14T13:12:57.487Z,12.80
2017-10-14T13:15:24.224Z,14.60
2017-10-14T13:17:51.027Z,13.00
2017-10-14T13:20:17.760Z,12.97
2017-10-14T13:22:44.575Z,12.93
2017-10-14T13:25:11.286Z,13.20
2017-10-14T13:27:37.997Z,13.70
2017-10-14T13:30:04.736Z,12.50
2017-10-14T13:32:31.439Z,11.40
2017-10-14T13:34:58.167Z,12.50
2017-10-14T13:37:24.906Z,12.60
2017-10-14T13:39:51.642Z,11.00
2017-10-14T13:42:18.378Z,11.83
2017-10-14T13:44:45.125Z,10.90
2017-10-14T13:47:11.827Z,12.87
2017-10-14T13:49:38.550Z,9.80
2017-10-14T13:52:05.307Z,10.60
2017-10-14T13:54:32.029Z,12.50
2017-10-14T13:56:58.732Z,11.57
2017-10-14T13:59:25.446Z,12.10
2017-10-14T14:01:52.148Z,11.03
2017-10-14T14:04:18.852Z,11.00
2017-10-14T14:06:45.592Z,10.90
2017-10-14T14:09:12.333Z,11.27
2017-10-14T14:11:39.063Z,10.63
2017-10-14T14:14:05.840Z,11.03
2017-10-14T14:16:32.550Z,10.27
2017-10-14T14:18:59.251Z,11.90
2017-10-14T14:21:25.995Z,10.77
2017-10-14T14:23:52.707Z,10.80
2017-10-14T14:26:19.419Z,9.90
2017-10-14T14:28:46.153Z,9.13
2017-10-14T14:31:12.846Z,9.93
2017-10-14T14:33:39.582Z,10.50
2017-10-14T14:36:06.298Z,9.60
2017-10-14T14:38:33.028Z,11.07
2017-10-14T14:40:59.722Z,9.70
2017-10-14T14:43:26.479Z,9.30
2017-10-14T14:45:53.169Z,8.17
2017-10-14T14:48:19.883Z,9.33
2017-10-14T14:50:46.640Z,9.33
2017-10-14T14:53:13.336Z,8.97
2017-10-14T14:55:40.043Z,9.60
2017-10-14T14:58:06.806Z,8.43
2017-10-14T15:00:33.507Z,9.30
2017-10-14T15:03:00.214Z,10.67
2017-10-14T15:05:26.992Z,9.07
2017-10-14T15:07:53.702Z,20.43
2017-10-14T15:10:20.422Z,11.00
2017-10-14T15:12:47.210Z,9.87
2017-10-14T15:15:13.963Z,9.20
2017-10-14T15:17:40.696Z,40.03
2017-10-14T15:20:07.431Z,11.87
2017-10-14T15:22:34.179Z,10.77
2017-10-14T15:25:00.887Z,10.50
2017-10-14T15:27:27.622Z,10.33
2017-10-14T15:29:54.336Z,9.40
2017-10-14T15:32:21.047Z,11.27
2017-10-14T15:34:47.821Z,10.30
2017-10-14T15:37:14.614Z,9.73
2017-10-14T15:39:41.329Z,10.53
2017-10-14T15:42:08.067Z,10.13
2017-10-14T15:44:34.798Z,11.00
2017-10-14T15:47:01.594Z,10.90
2017-10-14T15:49:28.428Z,10.73
2017-10-14T15:51:55.161Z,10.30
2017-10-14T15:54:21.929Z,11.33
2017-10-14T15:56:48.774Z,11.30
2017-10-14T15:59:15.586Z,11.30
2017-10-14T16:01:42.282Z,12.10
2017-10-14T16:04:09.034Z,13.90
2017-10-14T16:06:35.741Z,11.97
2017-10-14T16:09:02.495Z,12.30
2017-10-14T16:11:29.315Z,11.20
2017-10-14T16:13:56.030Z,10.90
2017-10-14T16:16:22.749Z,10.30
2017-10-14T16:18:49.482Z,11.20
2017-10-14T16:21:16.192Z,10.07
2017-10-14T16:23:43.026Z,10.83
2017-10-14T16:26:09.791Z,10.57
2017-10-14T16:28:36.524Z,10.40
2017-10-14T16:31:03.909Z,10.73
2017-10-14T16:33:30.691Z,10.40
2017-10-14T16:35:57.395Z,11.60
2017-10-14T16:38:24.169Z,12.00
2017-10-14T16:40:50.922Z,11.73
2017-10-14T16:43:17.742Z,11.40
2017-10-14T16:45:44.446Z,12.02
2017-10-14T16:48:11.264Z,12.43
2017-10-14T16:50:38.080Z,12.67
2017-10-14T16:53:04.800Z,11.13
2017-10-14T16:55:31.530Z,12.90
2017-10-14T16:57:58.273Z,12.60
2017-10-14T17:00:24.983Z,13.57
2017-10-14T17:02:51.745Z,13.90
2017-10-14T17:05:18.464Z,14.60
2017-10-14T17:07:45.158Z,14.50
2017-10-14T17:10:11.904Z,16.10
2017-10-14T17:12:38.629Z,16.93
2017-10-14T17:15:05.373Z,14.17
2017-10-14T17:17:32.131Z,14.80
2017-10-14T17:19:58.837Z,15.50
2017-10-14T17:22:25.586Z,14.70
2017-10-14T17:24:52.532Z,15.60
2017-10-14T17:27:19.247Z,16.60
2017-10-14T17:29:45.957Z,15.80
2017-10-14T17:32:12.704Z,16.57
2017-10-14T17:34:39.424Z,15.83
2017-10-14T17:37:06.135Z,16.13
2017-10-14T17:39:32.946Z,15.90
2017-10-14T17:41:59.648Z,16.80
2017-10-14T17:44:26.388Z,15.03
2017-10-14T17:46:53.121Z,15.93
2017-10-14T17:49:19.832Z,14.37
2017-10-14T17:51:46.764Z,14.00
2017-10-14T17:54:13.562Z,15.80
2017-10-14T17:56:40.514Z,14.47
2017-10-14T17:59:07.218Z,15.53
2017-10-14T18:01:33.951Z,14.80
2017-10-14T18:04:00.654Z,14.10
2017-10-14T18:06:27.356Z,13.90
2017-10-14T18:08:54.102Z,14.30
2017-10-14T18:11:20.824Z,14.43
2017-10-14T18:13:47.544Z,13.80
2017-10-14T18:16:14.366Z,15.03
2017-10-14T18:18:41.262Z,14.60
2017-10-14T18:21:07.976Z,14.30
2017-10-14T18:23:34.726Z,14.33
2017-10-14T18:26:01.429Z,15.17
2017-10-14T18:28:28.142Z,14.30
2017-10-14T18:30:54.862Z,14.30
2017-10-14T18:33:21.561Z,15.00
2017-10-14T18:35:49.047Z,14.97
2017-10-14T18:38:15.856Z,13.80
2017-10-14T18:40:42.567Z,13.83
2017-10-14T18:43:09.282Z,12.57
2017-10-14T18:45:36.029Z,12.73
2017-10-14T18:48:02.738Z,13.17
2017-10-14T18:50:29.694Z,13.63
2017-10-14T18:52:56.420Z,15.60
2017-10-14T18:55:23.133Z,16.07
2017-10-14T18:57:49.850Z,17.80
2017-10-14T19:00:16.595Z,16.90
2017-10-14T19:02:43.300Z,16.40
2017-10-14T19:05:10.006Z,16.00
2017-10-14T19:07:36.732Z,16.10
2017-10-14T19:10:03.481Z,15.70
2017-10-14T19:12:30.202Z,16.13
2017-10-14T19:14:56.982Z,16.20
2017-10-14T19:17:23.688Z,17.43
2017-10-14T19:19:50.493Z,16.20
2017-10-14T19:22:17.236Z,16.80
2017-10-14T19:24:43.967Z,16.93
2017-10-14T19:27:10.678Z,16.60
2017-10-14T19:29:37.411Z,17.50
2017-10-14T19:32:04.242Z,16.40
2017-10-14T19:34:30.981Z,20.10
2017-10-14T19:36:57.735Z,34.73
2017-10-14T19:39:24.495Z,27.17
2017-10-14T19:41:51.213Z,24.60
2017-10-14T19:44:17.979Z,18.73
2017-10-14T19:46:44.714Z,23.60
2017-10-14T19:49:11.437Z,29.20
2017-10-14T19:51:38.239Z,32.53
2017-10-14T19:54:05.108Z,34.37
2017-10-14T19:56:31.891Z,41.37
2017-10-14T19:58:58.640Z,39.37
2017-10-14T20:01:33.630Z,41.60
2017-10-14T20:04:02.144Z,36.90
2017-10-14T20:06:28.869Z,38.77
2017-10-14T20:08:55.632Z,38.43
2017-10-14T20:11:22.425Z,36.50
2017-10-14T20:13:49.246Z,35.37
2017-10-14T20:16:15.989Z,34.20
2017-10-14T20:18:42.761Z,30.40
2017-10-14T20:21:09.466Z,26.73
2017-10-14T20:23:36.213Z,24.40
2017-10-14T20:26:03.064Z,23.20
2017-10-14T20:28:29.884Z,22.53
2017-10-14T20:30:56.705Z,19.80
2017-10-14T20:33:23.460Z,19.93
2017-10-14T20:35:50.192Z,20.40
2017-10-14T20:38:16.911Z,19.90
2017-10-14T20:40:43.644Z,18.90
2017-10-14T20:43:10.823Z,17.93
2017-10-14T20:45:37.583Z,17.87
2017-10-14T20:48:04.318Z,19.03
2017-10-14T20:50:31.067Z,22.67
2017-10-14T20:52:57.786Z,23.23
2017-10-14T20:55:24.616Z,20.73
2017-10-14T20:57:51.345Z,20.20
2017-10-14T21:00:18.100Z,20.37
2017-10-14T21:02:44.862Z,19.57
2017-10-14T21:05:11.590Z,20.10
2017-10-14T21:07:38.429Z,18.07
2017-10-14T21:10:05.191Z,18.40
2017-10-14T21:12:31.947Z,17.23
2017-10-14T21:14:58.773Z,17.30
2017-10-14T21:17:25.532Z,17.47
2017-10-14T21:19:52.244Z,17.40
2017-10-14T21:22:18.976Z,16.37
2017-10-14T21:24:45.760Z,17.03
2017-10-14T21:27:12.481Z,16.30
2017-10-14T21:29:39.205Z,15.67
2017-10-14T21:32:05.944Z,15.20
2017-10-14T21:34:32.703Z,16.47
2017-10-14T21:36:59.455Z,16.63
2017-10-14T21:39:26.187Z,16.40
2017-10-14T21:41:52.912Z,17.10
2017-10-14T21:44:19.655Z,18.10
2017-10-14T21:46:46.424Z,15.83
2017-10-14T21:49:13.149Z,17.70
2017-10-14T21:51:39.878Z,18.00
2017-10-14T21:54:06.723Z,15.90
2017-10-14T21:56:33.553Z,16.80
2017-10-14T21:59:00.281Z,16.07
2017-10-14T22:01:27.038Z,16.07
2017-10-14T22:03:53.781Z,16.80
2017-10-14T22:06:20.512Z,16.77
2017-10-14T22:08:47.337Z,15.87
2017-10-14T22:11:14.059Z,18.50
2017-10-14T22:13:40.787Z,16.73
2017-10-14T22:16:07.591Z,18.23
2017-10-14T22:18:34.338Z,17.70
2017-10-14T22:21:01.118Z,17.47
2017-10-14T22:23:27.876Z,18.00
2017-10-14T22:25:54.601Z,17.50
2017-10-14T22:28:21.328Z,17.93
2017-10-14T22:30:48.059Z,16.43
2017-10-14T22:33:14.760Z,16.37
2017-10-14T22:35:41.501Z,18.90
2017-10-14T22:38:08.232Z,17.77
2017-10-14T22:40:34.947Z,17.90
2017-10-14T22:43:01.674Z,18.00
2017-10-14T22:45:28.407Z,17.80
2017-10-14T22:47:55.125Z,19.00
2017-10-14T22:50:21.844Z,17.80
2017-10-14T22:52:48.575Z,18.13
2017-10-14T22:55:15.274Z,16.93
2017-10-14T22:57:41.979Z,17.07
2017-10-14T23:00:08.780Z,16.47
2017-10-14T23:02:35.504Z,17.63
2017-10-14T23:05:02.208Z,16.83
2017-10-14T23:07:28.927Z,16.70
2017-10-14T23:09:55.644Z,16.60
2017-10-14T23:12:22.373Z,16.53
2017-10-14T23:14:49.099Z,18.73
2017-10-14T23:17:15.808Z,18.10
2017-10-14T23:19:42.543Z,18.60
2017-10-14T23:22:09.293Z,17.30
2017-10-14T23:24:36.017Z,17.00
2017-10-14T23:27:02.731Z,18.50
2017-10-14T23:29:29.513Z,15.97
2017-10-14T23:31:56.226Z,17.40
2017-10-14T23:34:22.935Z,19.70
2017-10-14T23:36:49.680Z,18.53
2017-10-14T23:39:16.390Z,16.93
2017-10-14T23:41:43.115Z,16.90
2017-10-14T23:44:09.862Z,18.13
2017-10-14T23:46:36.639Z,18.13
2017-10-14T23:49:03.376Z,18.23
2017-10-14T23:51:30.122Z,17.80
2017-10-14T23:53:56.827Z,17.07
2017-10-14T23:56:23.605Z,18.13
2017-10-14T23:58:50.340Z,18.70
